Time;durP1;ratioP1;P1;durP2;ratioP2;P2;SDS_P1;SDS_P2;PMS_P1;PMS_P2;Temp;Humidity;BMP_temperature;BMP_pressure;BME280_temperature;BME280_humidity;BME280_pressure;Samples;Min_cycle;Max_cycle;Signal;HPM_P1;HPM_P2
2021/07/31 00:00:40;;;;;;;0.80;0.50;;;18.60;99.90;;;;;;5025005;28;20199;-72
2021/07/31 00:03:06;;;;;;;0.87;0.70;;;18.50;99.90;;;;;;5029215;28;20171;-72
2021/07/31 00:05:31;;;;;;;0.80;0.60;;;18.40;99.90;;;;;;5030592;28;20281;-72
2021/07/31 00:07:57;;;;;;;0.80;0.50;;;18.40;99.90;;;;;;5023707;28;20168;-73
2021/07/31 00:10:22;;;;;;;7.50;3.00;;;18.40;99.90;;;;;;5007494;28;20649;-72
2021/07/31 00:12:48;;;;;;;0.80;0.50;;;18.40;99.90;;;;;;4999304;28;20176;-72
2021/07/31 00:15:13;;;;;;;0.80;0.50;;;18.30;99.90;;;;;;5016803;28;20223;-72
2021/07/31 00:17:39;;;;;;;0.80;0.60;;;18.20;99.90;;;;;;5022844;28;20179;-72
2021/07/31 00:20:05;;;;;;;1.10;0.67;;;18.20;99.90;;;;;;5020305;28;20684;-71
2021/07/31 00:22:31;;;;;;;0.80;0.50;;;18.10;99.90;;;;;;5031230;28;20524;-72
2021/07/31 00:24:56;;;;;;;0.70;0.50;;;18.10;99.90;;;;;;5011886;28;20480;-72
2021/07/31 00:27:22;;;;;;;0.80;0.60;;;18.10;99.90;;;;;;5012884;28;20251;-72
2021/07/31 00:29:47;;;;;;;0.80;0.50;;;18.10;99.90;;;;;;5022388;28;20207;-72
2021/07/31 00:32:14;;;;;;;0.80;0.50;;;18.10;99.90;;;;;;5024752;28;20228;-72
2021/07/31 00:34:39;;;;;;;1.83;1.43;;;18.10;99.90;;;;;;5029599;28;20207;-72
2021/07/31 00:37:05;;;;;;;0.97;0.80;;;18.10;99.90;;;;;;5015553;28;20427;-73
2021/07/31 00:39:38;;;;;;;0.80;0.60;;;18.10;99.90;;;;;;4998229;28;20226;-72
2021/07/31 00:42:04;;;;;;;2.03;0.60;;;18.10;99.90;;;;;;5017673;28;20161;-72
2021/07/31 00:44:30;;;;;;;0.80;0.60;;;18.10;99.90;;;;;;5023910;28;20445;-72
2021/07/31 00:46:55;;;;;;;0.70;0.50;;;18.10;99.90;;;;;;5029833;28;20418;-73
2021/07/31 00:49:21;;;;;;;0.80;0.70;;;18.10;99.90;;;;;;5018598;28;20641;-74
2021/07/31 00:51:47;;;;;;;0.80;0.60;;;18.10;99.90;;;;;;5015137;28;20176;-74
2021/07/31 00:54:12;;;;;;;0.80;0.60;;;18.20;99.90;;;;;;5015203;28;20443;-74
2021/07/31 00:56:39;;;;;;;0.70;0.50;;;18.20;99.90;;;;;;5023818;28;20186;-73
2021/07/31 00:59:05;;;;;;;0.70;0.50;;;18.20;99.90;;;;;;5020338;28;20208;-73
2021/07/31 01:01:30;;;;;;;0.80;0.50;;;18.20;99.90;;;;;;5000458;28;20492;-73
2021/07/31 01:03:56;;;;;;;1.20;1.10;;;18.10;99.90;;;;;;5014393;28;20209;-73
2021/07/31 01:06:21;;;;;;;0.80;0.50;;;18.10;99.90;;;;;;5021641;28;20711;-74
2021/07/31 01:08:47;;;;;;;0.70;0.50;;;18.10;99.90;;;;;;5015025;28;20180;-72
2021/07/31 01:11:13;;;;;;;0.80;0.70;;;18.10;99.90;;;;;;5018382;28;20708;-74
2021/07/31 01:13:39;;;;;;;0.80;0.60;;;18.00;99.90;;;;;;5019767;28;20207;-73
2021/07/31 01:16:09;;;;;;;2.20;2.10;;;18.00;99.90;;;;;;5030854;28;20221;-72
2021/07/31 01:18:36;;;;;;;0.77;0.53;;;18.00;99.90;;;;;;5020665;28;20529;-72
2021/07/31 01:21:02;;;;;;;0.80;0.60;;;18.00;99.90;;;;;;5010292;28;20449;-72
2021/07/31 01:23:28;;;;;;;0.80;0.60;;;18.00;99.90;;;;;;5024060;28;20445;-73
2021/07/31 01:25:54;;;;;;;2.43;1.33;;;17.90;99.90;;;;;;5016558;28;20431;-73
2021/07/31 01:28:20;;;;;;;0.70;0.50;;;17.90;99.90;;;;;;5029445;28;20791;-73
2021/07/31 01:30:45;;;;;;;2.60;1.17;;;17.90;99.90;;;;;;5027056;28;20433;-73
2021/07/31 01:33:11;;;;;;;0.80;0.70;;;17.80;99.90;;;;;;5022551;28;20188;-72
2021/07/31 01:35:38;;;;;;;0.70;0.50;;;17.80;99.90;;;;;;5026518;28;20215;-72
2021/07/31 01:38:04;;;;;;;0.77;0.50;;;17.80;99.90;;;;;;5017793;28;20191;-73
2021/07/31 01:40:30;;;;;;;0.80;0.50;;;17.80;99.90;;;;;;5029419;28;20466;-74
2021/07/31 01:42:56;;;;;;;0.70;0.60;;;17.80;99.90;;;;;;5014251;28;20597;-73
2021/07/31 01:45:26;;;;;;;0.80;0.60;;;17.80;99.90;;;;;;5033193;28;20200;-73
2021/07/31 01:47:52;;;;;;;0.80;0.60;;;17.80;99.90;;;;;;5023341;28;20911;-74
2021/07/31 01:50:18;;;;;;;0.80;0.60;;;17.80;99.90;;;;;;5018710;28;20439;-74
2021/07/31 01:52:44;;;;;;;0.70;0.50;;;17.80;99.90;;;;;;5004623;28;20540;-73
2021/07/31 01:55:11;;;;;;;0.77;0.50;;;17.70;99.90;;;;;;5019654;28;20974;-73
2021/07/31 01:57:36;;;;;;;0.70;0.50;;;17.70;99.90;;;;;;5009631;28;20435;-73
2021/07/31 02:00:02;;;;;;;1.63;1.53;;;17.70;99.90;;;;;;5016961;28;20458;-73
2021/07/31 02:02:29;;;;;;;1.40;0.80;;;17.60;99.90;;;;;;5016419;28;20183;-73
2021/07/31 02:04:54;;;;;;;0.80;0.60;;;17.60;99.90;;;;;;5030926;28;20973;-73
2021/07/31 02:07:20;;;;;;;0.80;0.63;;;17.60;99.90;;;;;;5023122;28;20431;-72
2021/07/31 02:09:45;;;;;;;1.43;0.70;;;17.60;99.90;;;;;;5021402;28;20188;-72
2021/07/31 02:12:11;;;;;;;1.10;0.70;;;17.50;99.90;;;;;;5026536;28;20183;-73
2021/07/31 02:14:37;;;;;;;0.70;0.50;;;17.60;99.90;;;;;;5032134;28;20215;-73
2021/07/31 02:17:02;;;;;;;0.70;0.50;;;17.60;99.90;;;;;;5026722;28;20271;-74
2021/07/31 02:19:31;;;;;;;0.80;0.50;;;17.60;99.90;;;;;;5023444;28;20258;-73
2021/07/31 02:21:57;;;;;;;3.63;2.00;;;17.60;99.90;;;;;;5020076;28;20179;-73
2021/07/31 02:24:22;;;;;;;0.80;0.60;;;17.50;99.90;;;;;;5014233;28;20509;-72
2021/07/31 02:26:48;;;;;;;0.80;0.60;;;17.60;99.90;;;;;;5012796;28;20443;-73
2021/07/31 02:29:14;;;;;;;0.80;0.60;;;17.50;99.90;;;;;;5019406;28;20183;-73
2021/07/31 02:31:40;;;;;;;0.80;0.60;;;17.50;99.90;;;;;;5021571;28;20633;-73
2021/07/31 02:34:05;;;;;;;0.70;0.50;;;17.50;99.90;;;;;;5021896;28;20463;-73
2021/07/31 02:36:31;;;;;;;1.20;0.70;;;17.50;99.90;;;;;;5020434;28;20191;-73
2021/07/31 02:38:57;;;;;;;1.63;0.63;;;17.50;99.90;;;;;;5012500;28;20239;-73
2021/07/31 02:41:22;;;;;;;0.70;0.50;;;17.50;99.90;;;;;;5016084;28;20191;-74
2021/07/31 02:43:48;;;;;;;0.80;0.63;;;17.50;99.90;;;;;;5017963;28;20196;-74
2021/07/31 02:46:13;;;;;;;0.87;0.60;;;17.40;99.90;;;;;;5013880;28;20210;-73
2021/07/31 02:48:39;;;;;;;0.80;0.57;;;17.40;99.90;;;;;;5031158;28;20572;-74
2021/07/31 02:51:10;;;;;;;0.90;0.90;;;17.50;99.90;;;;;;5030430;28;20183;-73
2021/07/31 02:53:36;;;;;;;0.80;0.50;;;17.40;99.90;;;;;;5012746;28;20251;-73
2021/07/31 02:56:01;;;;;;;0.70;0.60;;;17.40;99.90;;;;;;5025793;28;20756;-73
2021/07/31 02:58:27;;;;;;;0.70;0.50;;;17.50;99.90;;;;;;5019339;28;20168;-73
2021/07/31 03:00:53;;;;;;;0.70;0.50;;;17.40;99.90;;;;;;5012073;28;20176;-74
2021/07/31 03:03:18;;;;;;;1.63;1.53;;;17.40;99.90;;;;;;5021151;28;20262;-73
2021/07/31 03:05:56;;;;;;;0.70;0.50;;;17.40;99.90;;;;;;5023646;28;20199;-73
2021/07/31 03:08:22;;;;;;;0.80;0.80;;;17.40;99.90;;;;;;5014115;28;20270;-73
2021/07/31 03:10:53;;;;;;;0.70;0.50;;;17.40;99.90;;;;;;5013811;28;20520;-72
2021/07/31 03:13:19;;;;;;;6.10;0.80;;;17.40;99.90;;;;;;5012277;28;20518;-73
2021/07/31 03:15:44;;;;;;;1.13;0.87;;;17.40;99.90;;;;;;5019459;28;20561;-74
2021/07/31 03:18:10;;;;;;;0.80;0.60;;;17.40;99.90;;;;;;5021260;28;20196;-74
2021/07/31 03:20:35;;;;;;;0.80;0.70;;;17.40;99.90;;;;;;5010078;28;20207;-74
2021/07/31 03:23:01;;;;;;;0.70;0.50;;;17.50;99.90;;;;;;5014997;28;20199;-73
2021/07/31 03:25:27;;;;;;;0.70;0.50;;;17.50;99.90;;;;;;5015866;28;20661;-72
2021/07/31 03:27:52;;;;;;;0.70;0.60;;;17.50;99.90;;;;;;5013922;28;20183;-73
2021/07/31 03:30:18;;;;;;;0.80;0.70;;;17.60;99.90;;;;;;5029085;28;20188;-73
2021/07/31 03:32:43;;;;;;;0.73;0.50;;;17.60;99.90;;;;;;5017542;28;20578;-74
2021/07/31 03:35:09;;;;;;;0.90;0.60;;;17.60;99.90;;;;;;5010978;28;20727;-74
2021/07/31 03:37:34;;;;;;;0.77;0.57;;;17.60;99.90;;;;;;5011958;28;20184;-73
2021/07/31 03:40:00;;;;;;;0.80;0.70;;;17.70;99.90;;;;;;5021457;28;20223;-73
2021/07/31 03:42:25;;;;;;;0.70;0.50;;;17.70;99.90;;;;;;5014174;28;20218;-73
2021/07/31 03:44:51;;;;;;;0.80;0.60;;;17.70;99.90;;;;;;5022319;28;20729;-74
2021/07/31 03:47:16;;;;;;;0.70;0.60;;;17.70;99.90;;;;;;5023604;28;20253;-74
2021/07/31 03:49:42;;;;;;;0.80;0.60;;;17.80;99.90;;;;;;5014979;28;20206;-74
2021/07/31 03:52:07;;;;;;;0.73;0.50;;;17.70;99.90;;;;;;5011674;28;20183;-73
2021/07/31 03:54:36;;;;;;;0.70;0.50;;;17.80;99.90;;;;;;5015570;28;20223;-73
2021/07/31 03:57:02;;;;;;;0.80;0.60;;;17.80;99.90;;;;;;5018233;28;20222;-73
2021/07/31 03:59:27;;;;;;;0.80;0.60;;;17.80;99.90;;;;;;5014858;28;20466;-73
2021/07/31 04:01:55;;;;;;;0.70;0.50;;;17.80;99.90;;;;;;5024273;28;20206;-74
2021/07/31 04:04:20;;;;;;;0.70;0.50;;;17.80;99.90;;;;;;5030332;28;20199;-74
2021/07/31 04:06:45;;;;;;;0.80;0.60;;;17.80;99.90;;;;;;5021645;28;20489;-73
2021/07/31 04:09:11;;;;;;;0.70;0.53;;;17.80;99.90;;;;;;5014669;28;20184;-73
2021/07/31 04:11:36;;;;;;;0.90;0.70;;;17.80;99.90;;;;;;5004188;28;20179;-74
2021/07/31 04:14:02;;;;;;;0.70;0.50;;;17.80;99.90;;;;;;5029208;28;20203;-73
2021/07/31 04:16:27;;;;;;;0.73;0.53;;;17.70;99.90;;;;;;5031402;28;20246;-73
2021/07/31 04:18:53;;;;;;;0.80;0.60;;;17.70;99.90;;;;;;5022930;28;20237;-73
2021/07/31 04:21:19;;;;;;;1.20;0.87;;;17.70;99.90;;;;;;5022984;28;20180;-72
2021/07/31 04:23:44;;;;;;;0.80;0.60;;;17.70;99.90;;;;;;5025765;28;20211;-74
2021/07/31 04:26:15;;;;;;;0.80;0.60;;;17.70;99.90;;;;;;5019442;28;20179;-74
2021/07/31 04:28:42;;;;;;;1.03;0.93;;;17.60;99.90;;;;;;5011633;28;20271;-74
2021/07/31 04:31:13;;;;;;;3.43;1.53;;;17.70;99.90;;;;;;5018121;28;20431;-73
2021/07/31 04:33:39;;;;;;;0.70;0.50;;;17.60;99.90;;;;;;5031093;28;20473;-73
2021/07/31 04:36:05;;;;;;;0.80;0.60;;;17.60;99.90;;;;;;5031707;28;20768;-73
2021/07/31 04:38:31;;;;;;;0.80;0.60;;;17.60;99.90;;;;;;5017824;28;20433;-74
2021/07/31 04:40:57;;;;;;;0.73;0.57;;;17.50;99.90;;;;;;5033391;28;20842;-73
2021/07/31 04:43:23;;;;;;;0.80;0.70;;;17.50;99.90;;;;;;5025666;28;20612;-74
2021/07/31 04:45:49;;;;;;;0.90;0.80;;;17.50;99.90;;;;;;5023760;28;20866;-75
2021/07/31 04:48:14;;;;;;;0.80;0.60;;;17.50;99.90;;;;;;5025332;28;20176;-73
2021/07/31 04:50:40;;;;;;;0.80;0.60;;;17.50;99.90;;;;;;5032737;28;20176;-74
2021/07/31 04:53:06;;;;;;;0.90;0.70;;;17.40;99.90;;;;;;5031275;28;20251;-75
2021/07/31 04:55:31;;;;;;;0.70;0.60;;;17.40;99.90;;;;;;5022001;28;20702;-74
2021/07/31 04:57:57;;;;;;;0.87;0.70;;;17.40;99.90;;;;;;5018847;28;20246;-75
2021/07/31 05:00:22;;;;;;;0.80;0.70;;;17.40;99.90;;;;;;5025491;28;20200;-74
2021/07/31 05:02:48;;;;;;;0.80;0.70;;;17.50;99.90;;;;;;5016126;28;20176;-74
2021/07/31 05:05:13;;;;;;;0.70;0.50;;;17.50;99.90;;;;;;5012070;28;20191;-74
2021/07/31 05:07:39;;;;;;;0.90;0.70;;;17.40;99.90;;;;;;5014198;28;20173;-73
2021/07/31 05:10:05;;;;;;;0.80;0.67;;;17.40;99.90;;;;;;5014763;28;20657;-73
2021/07/31 05:12:30;;;;;;;0.70;0.60;;;17.50;99.90;;;;;;5018282;28;20251;-74
2021/07/31 05:14:56;;;;;;;0.70;0.50;;;17.50;99.90;;;;;;5014091;28;20497;-73
2021/07/31 05:17:22;;;;;;;0.80;0.50;;;17.60;99.90;;;;;;4999249;28;20176;-73
2021/07/31 05:19:48;;;;;;;0.73;0.60;;;17.60;99.90;;;;;;5017643;28;20262;-73
2021/07/31 05:22:18;;;;;;;0.70;0.50;;;17.60;99.90;;;;;;5033396;28;20505;-73
2021/07/31 05:24:43;;;;;;;0.70;0.50;;;17.60;99.90;;;;;;5019743;28;20785;-73
2021/07/31 05:27:09;;;;;;;1.10;0.70;;;17.70;99.90;;;;;;5013532;28;20476;-74
2021/07/31 05:29:35;;;;;;;0.80;0.60;;;17.70;99.90;;;;;;5023035;28;20188;-74
2021/07/31 05:32:01;;;;;;;0.80;0.60;;;17.70;99.90;;;;;;5020363;28;20171;-74
2021/07/31 05:34:26;;;;;;;0.70;0.50;;;17.70;99.90;;;;;;5032695;28;20196;-74
2021/07/31 05:36:52;;;;;;;0.80;0.60;;;17.80;99.90;;;;;;5033526;28;20418;-74
2021/07/31 05:39:18;;;;;;;0.97;0.87;;;17.80;99.90;;;;;;5022822;28;20572;-74
2021/07/31 05:41:44;;;;;;;0.70;0.60;;;17.80;99.90;;;;;;5010399;28;20419;-74
2021/07/31 05:44:09;;;;;;;0.80;0.60;;;17.90;99.90;;;;;;5019991;28;20188;-74
2021/07/31 05:46:35;;;;;;;0.80;0.60;;;18.00;99.90;;;;;;5004575;28;20171;-74
2021/07/31 05:49:00;;;;;;;0.80;0.70;;;18.10;99.90;;;;;;5017578;28;20523;-73
2021/07/31 05:51:26;;;;;;;0.80;0.70;;;18.10;99.90;;;;;;5011949;28;20176;-74
2021/07/31 05:53:51;;;;;;;0.70;0.50;;;18.10;99.90;;;;;;5016910;28;20196;-74
2021/07/31 05:56:17;;;;;;;1.07;0.70;;;18.10;99.90;;;;;;5013536;28;20204;-74
2021/07/31 05:58:43;;;;;;;0.80;0.80;;;18.10;99.90;;;;;;5020898;28;20259;-73
2021/07/31 06:01:09;;;;;;;0.70;0.50;;;18.20;99.90;;;;;;5014216;28;20187;-74
2021/07/31 06:03:35;;;;;;;0.90;0.60;;;18.30;99.90;;;;;;5016361;28;20823;-73
2021/07/31 06:06:01;;;;;;;0.90;0.80;;;18.30;99.90;;;;;;5026398;28;20167;-74
2021/07/31 06:08:27;;;;;;;1.60;1.23;;;18.30;99.90;;;;;;5015074;28;20610;-73
2021/07/31 06:11:03;;;;;;;1.17;0.70;;;18.40;99.90;;;;;;5019163;28;20203;-73
2021/07/31 06:13:30;;;;;;;0.80;0.70;;;18.40;99.90;;;;;;5025260;28;20454;-74
2021/07/31 06:15:56;;;;;;;0.80;0.60;;;18.40;99.90;;;;;;5025965;28;20441;-73
2021/07/31 06:18:21;;;;;;;0.80;0.50;;;18.40;99.90;;;;;;5032696;28;20426;-74
2021/07/31 06:20:47;;;;;;;0.80;0.70;;;18.50;99.90;;;;;;5025004;28;20254;-74
2021/07/31 06:23:12;;;;;;;0.80;0.50;;;18.80;99.90;;;;;;5012884;28;20191;-75
2021/07/31 06:25:38;;;;;;;0.80;0.60;;;19.00;99.90;;;;;;5022217;28;20183;-74
2021/07/31 06:28:04;;;;;;;1.20;0.87;;;19.30;99.90;;;;;;5019382;28;20195;-74
2021/07/31 06:30:29;;;;;;;0.80;0.60;;;19.60;99.90;;;;;;5014289;28;20176;-74
2021/07/31 06:32:55;;;;;;;0.80;0.60;;;19.80;99.90;;;;;;5013076;28;20238;-74
2021/07/31 06:35:20;;;;;;;0.90;0.80;;;20.00;99.90;;;;;;5013901;28;20254;-74
2021/07/31 06:37:46;;;;;;;0.90;0.70;;;20.20;99.90;;;;;;5022838;28;20180;-73
2021/07/31 06:40:11;;;;;;;0.80;0.50;;;20.50;99.90;;;;;;5013052;28;20203;-74
2021/07/31 06:42:37;;;;;;;0.80;0.50;;;20.70;99.90;;;;;;5006950;28;20183;-76
2021/07/31 06:45:03;;;;;;;2.03;1.83;;;20.80;99.90;;;;;;5018249;28;20199;-74
2021/07/31 06:47:29;;;;;;;0.80;0.60;;;21.00;99.90;;;;;;5013464;28;20177;-74
2021/07/31 06:49:54;;;;;;;0.90;0.80;;;21.10;99.90;;;;;;5020414;28;20430;-74
2021/07/31 06:52:20;;;;;;;0.80;0.60;;;21.10;99.90;;;;;;5029180;28;20191;-73
2021/07/31 06:54:45;;;;;;;1.03;0.80;;;21.10;99.90;;;;;;5012503;28;20208;-73
2021/07/31 06:57:11;;;;;;;1.30;1.20;;;20.90;99.90;;;;;;5017983;28;20238;-74
2021/07/31 06:59:38;;;;;;;3.07;1.30;;;20.70;99.90;;;;;;5023441;28;20200;-74
2021/07/31 07:02:04;;;;;;;0.80;0.50;;;20.50;99.90;;;;;;5024176;28;20577;-74
2021/07/31 07:04:29;;;;;;;0.90;0.70;;;20.40;99.90;;;;;;5026684;28;20442;-74
2021/07/31 07:06:55;;;;;;;0.90;0.73;;;20.50;99.90;;;;;;5022429;28;20431;-73
2021/07/31 07:09:21;;;;;;;3.77;0.80;;;20.50;99.90;;;;;;5016132;28;21854;-74
2021/07/31 07:11:46;;;;;;;2.50;1.93;;;20.70;99.90;;;;;;5011854;28;20176;-74
2021/07/31 07:14:12;;;;;;;1.00;0.83;;;20.80;99.90;;;;;;5014175;28;20203;-74
2021/07/31 07:16:37;;;;;;;2.33;0.73;;;20.80;99.90;;;;;;5013741;28;20206;-73
2021/07/31 07:19:03;;;;;;;0.80;0.60;;;20.70;99.90;;;;;;5020644;28;20232;-74
2021/07/31 07:21:28;;;;;;;0.90;0.70;;;20.70;99.90;;;;;;5018040;28;20180;-73
2021/07/31 07:23:54;;;;;;;1.37;1.03;;;20.70;99.90;;;;;;5014346;28;20280;-74
2021/07/31 07:26:20;;;;;;;0.70;0.50;;;20.70;99.90;;;;;;5014833;28;20172;-74
2021/07/31 07:28:45;;;;;;;0.87;0.70;;;20.80;99.90;;;;;;5012088;28;20177;-74
2021/07/31 07:31:13;;;;;;;1.20;0.93;;;20.90;99.90;;;;;;5013545;28;20192;-73
2021/07/31 07:33:39;;;;;;;0.80;0.70;;;20.90;99.90;;;;;;5012606;28;20203;-74
2021/07/31 07:36:13;;;;;;;0.80;0.60;;;20.80;99.90;;;;;;5011462;28;20438;-73
2021/07/31 07:38:39;;;;;;;1.00;0.90;;;20.90;99.90;;;;;;5012304;28;20427;-75
2021/07/31 07:41:06;;;;;;;1.30;0.80;;;21.00;99.90;;;;;;5010474;28;20429;-74
2021/07/31 07:43:32;;;;;;;1.13;0.70;;;21.30;99.90;;;;;;5011750;28;20607;-74
2021/07/31 07:45:57;;;;;;;1.33;1.00;;;21.60;99.90;;;;;;5011664;28;20442;-75
2021/07/31 07:48:23;;;;;;;0.80;0.60;;;21.70;99.90;;;;;;5010492;28;20649;-75
2021/07/31 07:50:48;;;;;;;1.10;0.80;;;21.80;99.90;;;;;;5013550;28;20179;-74
2021/07/31 07:53:14;;;;;;;0.90;0.67;;;21.80;99.90;;;;;;5022073;28;20199;-75
2021/07/31 07:55:39;;;;;;;0.80;0.57;;;21.80;99.90;;;;;;5022579;28;20175;-74
2021/07/31 07:58:09;;;;;;;1.10;0.70;;;22.00;99.90;;;;;;5035263;28;20694;-75
2021/07/31 08:00:36;;;;;;;1.00;0.70;;;22.20;99.90;;;;;;5017819;28;20704;-75
2021/07/31 08:03:01;;;;;;;0.80;0.60;;;22.40;99.90;;;;;;5034175;28;20425;-75
2021/07/31 08:05:27;;;;;;;3.80;0.80;;;22.70;99.90;;;;;;5017036;28;20800;-75
2021/07/31 08:07:53;;;;;;;1.73;0.70;;;22.90;99.90;;;;;;5015871;28;20206;-75
2021/07/31 08:10:19;;;;;;;0.80;0.60;;;23.10;99.90;;;;;;5015252;28;20179;-74
2021/07/31 08:12:44;;;;;;;0.90;0.77;;;23.10;99.90;;;;;;5026059;28;20180;-74
2021/07/31 08:15:10;;;;;;;0.80;0.50;;;23.10;99.90;;;;;;5024234;28;20211;-74
2021/07/31 08:17:36;;;;;;;0.80;0.50;;;23.20;99.90;;;;;;5033481;28;20591;-74
2021/07/31 08:20:03;;;;;;;0.80;0.50;;;23.10;99.90;;;;;;5025858;28;20455;-73
2021/07/31 08:22:29;;;;;;;1.67;1.20;;;23.00;99.90;;;;;;5016334;28;20550;-74
2021/07/31 08:24:55;;;;;;;0.80;0.60;;;23.00;99.90;;;;;;5034307;28;20851;-75
2021/07/31 08:27:20;;;;;;;0.80;0.63;;;23.00;99.90;;;;;;5016010;28;20184;-74
2021/07/31 08:29:46;;;;;;;0.80;0.57;;;22.70;99.90;;;;;;5016220;28;20196;-74
2021/07/31 08:32:11;;;;;;;0.90;0.70;;;22.40;99.90;;;;;;5025261;28;20207;-75
2021/07/31 08:34:37;;;;;;;7.20;1.47;;;22.20;99.90;;;;;;5004153;28;20250;-74
2021/07/31 08:37:03;;;;;;;0.80;0.57;;;22.10;99.90;;;;;;5028113;28;20175;-73
2021/07/31 08:39:29;;;;;;;2.73;2.07;;;22.00;99.90;;;;;;5032282;28;20188;-74
2021/07/31 08:41:55;;;;;;;0.90;0.60;;;22.00;99.90;;;;;;5021674;28;20410;-73
2021/07/31 08:44:20;;;;;;;1.47;1.37;;;21.90;99.90;;;;;;5029563;28;20187;-74
2021/07/31 08:46:50;;;;;;;0.80;0.60;;;21.60;99.90;;;;;;5017137;28;20581;-75
2021/07/31 08:49:18;;;;;;;0.80;0.60;;;21.80;99.90;;;;;;5001622;28;20210;-75
2021/07/31 08:51:45;;;;;;;0.90;0.70;;;21.70;99.90;;;;;;5015123;28;20458;-75
2021/07/31 08:54:11;;;;;;;0.90;0.70;;;21.60;99.90;;;;;;5029622;28;20442;-75
2021/07/31 08:56:40;;;;;;;0.80;0.60;;;21.60;99.90;;;;;;5029196;28;20415;-74
2021/07/31 08:59:06;;;;;;;0.80;0.60;;;21.80;99.90;;;;;;5033469;28;20192;-73
2021/07/31 09:01:31;;;;;;;1.00;0.90;;;21.90;99.90;;;;;;5020122;28;20419;-76
2021/07/31 09:04:13;;;;;;;0.80;0.50;;;21.90;99.90;;;;;;5017802;28;20943;-74
2021/07/31 09:06:39;;;;;;;2.17;1.97;;;22.00;99.90;;;;;;5032368;28;20187;-75
2021/07/31 09:09:04;;;;;;;1.47;1.37;;;22.10;99.90;;;;;;5034337;28;20452;-75
2021/07/31 09:11:32;;;;;;;0.80;0.60;;;22.30;99.90;;;;;;5034056;28;20855;-74
2021/07/31 09:14:14;;;;;;;0.80;0.57;;;22.40;99.90;;;;;;5032495;28;20249;-74
2021/07/31 09:16:41;;;;;;;0.90;0.60;;;22.60;99.90;;;;;;5027744;28;20445;-74
2021/07/31 09:19:09;;;;;;;0.80;0.60;;;22.80;99.90;;;;;;5015296;28;20517;-76
2021/07/31 09:21:35;;;;;;;1.00;0.90;;;23.00;99.90;;;;;;5007328;28;21002;-75
2021/07/31 09:24:02;;;;;;;0.80;0.70;;;23.10;99.90;;;;;;5033987;28;20434;-74
2021/07/31 09:26:36;;;;;;;0.90;0.70;;;23.10;99.90;;;;;;5033616;28;20414;-74
2021/07/31 09:29:10;;;;;;;0.80;0.60;;;22.80;99.90;;;;;;5018009;28;20482;-75
2021/07/31 09:31:49;;;;;;;1.00;0.60;;;22.50;99.90;;;;;;5033212;28;20422;-75
2021/07/31 09:34:34;;;;;;;0.80;0.60;;;22.30;99.90;;;;;;4997024;28;20593;-75
2021/07/31 09:37:27;;;;;;;0.80;0.60;;;22.00;99.90;;;;;;5013913;28;20418;-75
2021/07/31 09:39:58;;;;;;;0.80;0.60;;;22.00;99.90;;;;;;5014167;28;20454;-74
2021/07/31 09:42:35;;;;;;;0.97;0.87;;;21.90;99.90;;;;;;5013966;28;20987;-75
2021/07/31 09:45:12;;;;;;;0.80;0.63;;;21.90;99.90;;;;;;4998179;28;20601;-75
2021/07/31 09:47:57;;;;;;;2.17;1.83;;;22.20;99.90;;;;;;5014141;28;20419;-75
2021/07/31 09:50:36;;;;;;;1.40;1.00;;;22.50;99.90;;;;;;5016647;28;20459;-74
2021/07/31 09:53:13;;;;;;;0.90;0.70;;;22.80;99.90;;;;;;5015513;28;20529;-74
2021/07/31 09:55:47;;;;;;;0.97;0.87;;;22.80;99.90;;;;;;5013562;28;20419;-75
2021/07/31 09:58:15;;;;;;;1.00;0.70;;;22.80;99.90;;;;;;4996923;28;20812;-74
2021/07/31 10:00:42;;;;;;;0.90;0.63;;;22.90;99.90;;;;;;5013802;28;20461;-75
2021/07/31 10:03:12;;;;;;;0.80;0.60;;;22.70;99.90;;;;;;5020606;28;20544;-75
2021/07/31 10:05:42;;;;;;;0.80;0.50;;;22.80;99.90;;;;;;5032972;28;20819;-75
2021/07/31 10:08:10;;;;;;;0.80;0.60;;;23.20;99.90;;;;;;5012486;28;20461;-74
2021/07/31 10:10:36;;;;;;;1.00;0.90;;;23.30;99.90;;;;;;5013675;28;20829;-75
2021/07/31 10:13:02;;;;;;;0.80;0.77;;;23.20;99.90;;;;;;5012755;28;20427;-74
2021/07/31 10:15:28;;;;;;;1.73;1.00;;;23.10;99.90;;;;;;5015958;28;20455;-74
2021/07/31 10:17:54;;;;;;;1.10;0.90;;;23.10;99.90;;;;;;5014264;28;20490;-74
2021/07/31 10:20:23;;;;;;;0.90;0.70;;;23.10;99.90;;;;;;5030618;28;20333;-74
2021/07/31 10:22:49;;;;;;;0.80;0.60;;;22.80;99.90;;;;;;5031725;28;20441;-74
2021/07/31 10:25:18;;;;;;;1.30;0.80;;;22.70;99.90;;;;;;5018616;28;20991;-74
2021/07/31 10:27:45;;;;;;;1.50;0.73;;;22.50;99.90;;;;;;5013827;28;20180;-73
2021/07/31 10:30:38;;;;;;;1.40;1.30;;;22.40;99.90;;;;;;5022925;28;20422;-74
2021/07/31 10:33:24;;;;;;;1.00;0.80;;;22.10;99.90;;;;;;5014274;28;20423;-74
2021/07/31 10:35:50;;;;;;;0.80;0.50;;;21.90;99.90;;;;;;5012529;28;20481;-74
2021/07/31 10:38:32;;;;;;;1.10;0.90;;;22.20;99.90;;;;;;5021314;28;20513;-75
2021/07/31 10:40:58;;;;;;;0.80;0.60;;;22.80;99.90;;;;;;5030699;28;20196;-75
2021/07/31 10:43:25;;;;;;;0.93;0.70;;;23.10;99.90;;;;;;5029233;28;20430;-74
2021/07/31 10:46:18;;;;;;;0.90;0.77;;;23.20;99.90;;;;;;5032235;28;20246;-74
2021/07/31 10:48:44;;;;;;;0.80;0.50;;;23.10;99.90;;;;;;5030871;28;20417;-74
2021/07/31 10:51:40;;;;;;;0.80;0.63;;;23.20;99.90;;;;;;5032077;28;20927;-75
2021/07/31 10:54:06;;;;;;;0.80;0.60;;;23.40;99.90;;;;;;5023919;28;20184;-75
2021/07/31 10:56:54;;;;;;;2.10;1.07;;;24.00;99.90;;;;;;5023933;28;20421;-76
2021/07/31 10:59:20;;;;;;;1.53;0.70;;;24.40;99.90;;;;;;5026785;28;20239;-76
2021/07/31 11:01:46;;;;;;;0.93;0.73;;;24.50;99.90;;;;;;5017792;28;20450;-75
2021/07/31 11:04:49;;;;;;;1.10;0.70;;;24.50;99.90;;;;;;5032045;28;20194;-75
2021/07/31 11:07:14;;;;;;;1.03;0.93;;;24.50;99.90;;;;;;4998107;28;20430;-74
2021/07/31 11:09:40;;;;;;;1.30;0.80;;;24.50;99.90;;;;;;5012877;28;20415;-75
2021/07/31 11:12:40;;;;;;;0.80;0.60;;;24.40;99.90;;;;;;5018050;28;20649;-76
2021/07/31 11:15:08;;;;;;;3.73;1.83;;;24.40;99.90;;;;;;5023666;28;20210;-75
2021/07/31 11:17:37;;;;;;;0.80;0.50;;;24.20;99.90;;;;;;5005863;28;20978;-75
2021/07/31 11:20:22;;;;;;;1.43;0.83;;;23.90;99.90;;;;;;5019098;28;20455;-75
2021/07/31 11:22:47;;;;;;;1.00;0.60;;;23.70;99.90;;;;;;5011624;28;20422;-74
2021/07/31 11:25:14;;;;;;;0.80;0.60;;;23.40;99.90;;;;;;5022469;28;20816;-73
2021/07/31 11:27:39;;;;;;;1.00;0.60;;;23.30;99.90;;;;;;5017149;28;20577;-74
2021/07/31 11:30:06;;;;;;;0.80;0.60;;;23.20;99.90;;;;;;5021082;28;20411;-75
2021/07/31 11:32:31;;;;;;;0.80;0.60;;;23.30;99.90;;;;;;5014898;28;20172;-74
2021/07/31 11:34:57;;;;;;;1.00;0.70;;;23.30;99.90;;;;;;5026316;28;20438;-75
2021/07/31 11:37:24;;;;;;;1.57;1.27;;;23.20;99.90;;;;;;5011633;28;20175;-74
2021/07/31 11:39:49;;;;;;;0.80;0.60;;;23.10;99.90;;;;;;5030826;28;20202;-74
2021/07/31 11:42:22;;;;;;;1.17;1.07;;;22.90;99.90;;;;;;5030369;28;20422;-74
2021/07/31 11:44:47;;;;;;;1.03;0.90;;;22.70;99.90;;;;;;5012600;28;20341;-74
2021/07/31 11:47:13;;;;;;;0.90;0.80;;;22.50;99.90;;;;;;5012480;28;20470;-75
2021/07/31 11:49:40;;;;;;;1.00;0.90;;;22.40;99.90;;;;;;5001246;28;20176;-74
2021/07/31 11:52:07;;;;;;;1.37;0.70;;;22.40;99.90;;;;;;5019364;28;20198;-74
2021/07/31 11:54:37;;;;;;;1.00;0.70;;;22.20;99.90;;;;;;5012642;28;20434;-74
2021/07/31 11:57:03;;;;;;;0.90;0.63;;;22.10;99.90;;;;;;5021929;28;20472;-74
2021/07/31 11:59:31;;;;;;;1.23;1.10;;;22.00;99.90;;;;;;5029645;28;20482;-74
2021/07/31 12:01:57;;;;;;;0.90;0.60;;;22.00;99.90;;;;;;5012749;28;20168;-74
2021/07/31 12:04:51;;;;;;;1.00;0.80;;;22.30;99.90;;;;;;5029953;28;20471;-75
2021/07/31 12:07:19;;;;;;;0.80;0.60;;;23.00;99.90;;;;;;5027969;28;20485;-75
2021/07/31 12:10:02;;;;;;;1.00;0.70;;;23.70;99.90;;;;;;5029013;28;20421;-74
2021/07/31 12:12:32;;;;;;;0.80;0.60;;;24.20;99.90;;;;;;5010542;28;20434;-74
2021/07/31 12:15:17;;;;;;;1.33;1.23;;;24.80;99.90;;;;;;4978216;28;1073143;-75
2021/07/31 12:17:56;;;;;;;2.80;2.00;;;25.60;99.90;;;;;;5015617;28;20176;-75
2021/07/31 12:20:34;;;;;;;1.30;1.20;;;26.00;99.90;;;;;;5022101;28;20455;-75
2021/07/31 12:23:00;;;;;;;2.13;1.90;;;26.00;99.90;;;;;;5013010;28;20411;-75
2021/07/31 12:25:28;;;;;;;2.13;2.03;;;25.90;99.90;;;;;;5012585;28;20474;-75
2021/07/31 12:27:59;;;;;;;6.40;2.80;;;25.70;99.90;;;;;;5011919;28;20437;-75
2021/07/31 12:30:27;;;;;;;4.60;2.93;;;25.60;99.90;;;;;;5014427;28;20450;-74
2021/07/31 12:32:57;;;;;;;3.00;1.53;;;25.60;99.90;;;;;;5011947;28;20458;-75
2021/07/31 12:35:32;;;;;;;0.90;0.60;;;25.30;99.90;;;;;;5025503;28;20442;-74
2021/07/31 12:37:58;;;;;;;0.83;0.63;;;25.00;99.90;;;;;;5033158;28;20421;-74
2021/07/31 12:40:24;;;;;;;0.87;0.70;;;24.60;99.90;;;;;;5032702;28;20560;-74
2021/07/31 12:42:49;;;;;;;1.20;1.07;;;24.20;99.90;;;;;;5032912;28;20171;-74
2021/07/31 12:45:15;;;;;;;0.80;0.60;;;23.90;99.90;;;;;;5025656;28;20195;-75
2021/07/31 12:47:40;;;;;;;0.80;0.60;;;23.50;99.90;;;;;;5020344;28;20227;-75
2021/07/31 12:50:06;;;;;;;0.90;0.70;;;23.30;99.90;;;;;;5019162;28;20695;-74